Time;durP1;ratioP1;P1;durP2;ratioP2;P2;SDS_P1;SDS_P2;PMS_P1;PMS_P2;Temp;Humidity;BMP_temperature;BMP_pressure;BME280_temperature;BME280_humidity;BME280_pressure;Samples;Min_cycle;Max_cycle;Signal;HPM_P1;HPM_P2
2022/06/05 00:00:27;;;;;;;57.97;36.70;;;;;;;;;;5076608;28;20058;-91
2022/06/05 00:02:57;;;;;;;51.75;33.88;;;;;;;;;;5078719;28;20031;-89
2022/06/05 00:05:30;;;;;;;48.22;34.50;;;;;;;;;;5074811;28;20123;-86
2022/06/05 00:08:05;;;;;;;54.53;35.20;;;;;;;;;;5087241;28;20066;-84
2022/06/05 00:10:46;;;;;;;50.05;33.33;;;;;;;;;;5098631;28;20028;-89
2022/06/05 00:13:12;;;;;;;51.95;33.20;;;;;;;;;;5110346;28;20043;-89
2022/06/05 00:15:38;;;;;;;53.00;32.20;;;;;;;;;;5121582;28;20087;-88
2022/06/05 00:18:05;;;;;;;49.92;33.53;;;;;;;;;;5081656;28;20017;-87
2022/06/05 00:20:31;;;;;;;48.13;31.25;;;;;;;;;;5088262;28;20490;-88
2022/06/05 00:22:58;;;;;;;36.92;27.55;;;;;;;;;;5094995;28;20092;-91
2022/06/05 00:25:30;;;;;;;32.90;24.35;;;;;;;;;;5095412;28;20016;-89
2022/06/05 00:28:04;;;;;;;41.03;25.90;;;;;;;;;;5095345;28;20024;-89
2022/06/05 00:30:40;;;;;;;32.45;21.95;;;;;;;;;;5076203;28;20530;-86
2022/06/05 00:33:27;;;;;;;23.88;16.88;;;;;;;;;;5078750;28;20030;-91
2022/06/05 00:36:13;;;;;;;29.38;16.40;;;;;;;;;;5081386;28;20036;-89
2022/06/05 00:38:39;;;;;;;21.55;14.48;;;;;;;;;;5075103;28;20032;-90
2022/06/05 00:41:05;;;;;;;22.00;13.95;;;;;;;;;;5078724;28;20028;-91
2022/06/05 00:43:32;;;;;;;19.65;16.20;;;;;;;;;;5094875;28;20023;-91
2022/06/05 00:45:58;;;;;;;13.85;10.35;;;;;;;;;;5095098;28;20700;-93
2022/06/05 00:48:25;;;;;;;16.95;11.45;;;;;;;;;;5086875;28;20415;-91
2022/06/05 00:50:51;;;;;;;13.05;9.25;;;;;;;;;;5081899;28;20012;-93
2022/06/05 00:53:17;;;;;;;9.65;8.07;;;;;;;;;;5083414;28;20051;-93
2022/06/05 00:55:45;;;;;;;9.63;7.50;;;;;;;;;;5095874;28;20143;-94
2022/06/05 00:58:12;;;;;;;22.55;8.25;;;;;;;;;;5097268;28;20074;-93
2022/06/05 01:00:40;;;;;;;10.85;7.07;;;;;;;;;;5099032;28;20027;-93
2022/06/05 01:03:09;;;;;;;13.25;7.03;;;;;;;;;;5076970;28;20017;-89
2022/06/05 01:05:37;;;;;;;11.43;7.60;;;;;;;;;;5075864;28;20020;-90
2022/06/05 01:08:03;;;;;;;11.73;7.75;;;;;;;;;;5074746;28;20024;-91
2022/06/05 01:10:37;;;;;;;14.50;8.50;;;;;;;;;;5074313;28;20028;-90
2022/06/05 01:13:13;;;;;;;14.00;8.50;;;;;;;;;;5072001;28;20023;-92
2022/06/05 01:15:51;;;;;;;10.88;8.55;;;;;;;;;;5091499;28;20050;-91
2022/06/05 01:18:17;;;;;;;13.73;8.15;;;;;;;;;;5091990;28;20045;-93
2022/06/05 01:20:44;;;;;;;14.05;8.95;;;;;;;;;;5105474;28;20016;-94
2022/06/05 01:23:21;;;;;;;11.23;8.23;;;;;;;;;;5111592;28;20017;-94
2022/06/05 01:25:50;;;;;;;16.65;8.50;;;;;;;;;;5111785;28;20384;-93
2022/06/05 01:28:41;;;;;;;11.70;7.95;;;;;;;;;;5111894;28;20008;-93
2022/06/05 01:31:07;;;;;;;9.93;8.57;;;;;;;;;;5113473;28;20019;-91
2022/06/05 01:33:38;;;;;;;9.32;8.15;;;;;;;;;;5110145;28;20016;-91
2022/06/05 01:36:07;;;;;;;14.40;7.88;;;;;;;;;;5094483;28;20035;-90
2022/06/05 01:38:37;;;;;;;8.45;7.55;;;;;;;;;;5080543;28;20024;-88
2022/06/05 01:41:15;;;;;;;9.23;8.18;;;;;;;;;;5080899;28;20051;-89
2022/06/05 01:43:44;;;;;;;14.07;8.48;;;;;;;;;;5082777;28;20021;-89
2022/06/05 01:46:16;;;;;;;10.80;7.13;;;;;;;;;;5081814;28;20028;-88
2022/06/05 01:48:49;;;;;;;18.55;7.72;;;;;;;;;;5088233;28;20105;-88
2022/06/05 01:51:19;;;;;;;8.70;6.50;;;;;;;;;;5086539;28;20039;-87
2022/06/05 01:53:44;;;;;;;;;;;;;;;;;;5093023;28;20048;-88
2022/06/05 01:56:14;;;;;;;12.40;9.40;;;;;;;;;;5093909;28;20409;-88
2022/06/05 01:58:44;;;;;;;11.73;8.02;;;;;;;;;;5093808;28;20103;-87
2022/06/05 02:01:15;;;;;;;11.70;6.80;;;;;;;;;;5091958;28;20497;-89
2022/06/05 02:03:47;;;;;;;12.95;9.25;;;;;;;;;;5077157;28;20005;-89
2022/06/05 02:06:20;;;;;;;8.77;6.78;;;;;;;;;;5071477;28;20024;-88
2022/06/05 02:09:05;;;;;;;8.82;7.25;;;;;;;;;;5072095;28;20021;-87
2022/06/05 02:11:34;;;;;;;11.75;7.85;;;;;;;;;;5072396;28;20016;-88
2022/06/05 02:14:05;;;;;;;14.90;8.38;;;;;;;;;;5071933;28;20436;-87
2022/06/05 02:16:33;;;;;;;9.85;7.70;;;;;;;;;;5071920;28;20119;-88
2022/06/05 02:19:01;;;;;;;12.57;8.52;;;;;;;;;;5089812;28;20023;-86
2022/06/05 02:21:28;;;;;;;10.30;8.85;;;;;;;;;;5089106;28;20448;-89
2022/06/05 02:23:54;;;;;;;12.18;8.80;;;;;;;;;;5090035;28;20492;-87
2022/06/05 02:26:21;;;;;;;9.48;7.40;;;;;;;;;;5089443;28;20070;-84
2022/06/05 02:28:47;;;;;;;12.10;7.90;;;;;;;;;;5093212;28;20047;-88
2022/06/05 02:31:30;;;;;;;9.35;8.30;;;;;;;;;;5090993;28;20043;-90
2022/06/05 02:34:06;;;;;;;10.38;8.55;;;;;;;;;;5073625;28;20050;-88
2022/06/05 02:36:41;;;;;;;12.95;8.05;;;;;;;;;;5074182;28;20024;-89
2022/06/05 02:39:27;;;;;;;10.20;7.95;;;;;;;;;;5081188;28;20119;-87
2022/06/05 02:41:57;;;;;;;8.93;8.02;;;;;;;;;;5063243;28;20119;-87
2022/06/05 02:44:31;;;;;;;10.82;8.15;;;;;;;;;;5091598;28;20020;-89
2022/06/05 02:47:16;;;;;;;9.38;8.35;;;;;;;;;;5089505;28;20024;-87
2022/06/05 02:49:51;;;;;;;12.27;8.43;;;;;;;;;;5071911;28;20055;-90
2022/06/05 02:52:17;;;;;;;8.55;7.63;;;;;;;;;;5071182;28;20069;-90
2022/06/05 02:55:04;;;;;;;12.50;9.05;;;;;;;;;;5071670;28;20558;-92
2022/06/05 02:57:30;;;;;;;10.57;8.02;;;;;;;;;;5071222;28;20067;-87
2022/06/05 02:59:57;;;;;;;12.80;7.97;;;;;;;;;;5080196;28;20093;-89
2022/06/05 03:05:08;;;;;;;15.57;8.50;;;;;;;;;;5074685;28;20051;-90
2022/06/05 03:07:34;;;;;;;10.05;7.32;;;;;;;;;;5072756;28;20021;-90
2022/06/05 03:10:00;;;;;;;12.00;8.85;;;;;;;;;;5071691;28;20024;-83
2022/06/05 03:12:27;;;;;;;10.88;8.10;;;;;;;;;;5073018;28;20020;-90
2022/06/05 03:15:01;;;;;;;10.10;7.53;;;;;;;;;;5072348;28;20065;-90
2022/06/05 03:17:28;;;;;;;9.98;7.85;;;;;;;;;;5070578;28;20032;-88
2022/06/05 03:19:58;;;;;;;9.77;8.13;;;;;;;;;;5073302;28;20042;-87
2022/06/05 03:22:24;;;;;;;9.95;8.63;;;;;;;;;;5091312;28;20494;-89
2022/06/05 03:24:50;;;;;;;12.48;8.65;;;;;;;;;;5089978;28;20075;-84
2022/06/05 03:27:17;;;;;;;11.38;8.65;;;;;;;;;;5092730;28;20019;-86
2022/06/05 03:29:43;;;;;;;18.42;8.90;;;;;;;;;;5090621;28;20024;-85
2022/06/05 03:32:09;;;;;;;15.57;9.00;;;;;;;;;;5088986;28;20016;-84
2022/06/05 03:34:35;;;;;;;11.45;10.18;;;;;;;;;;5090509;28;20032;-84
2022/06/05 03:37:04;;;;;;;13.02;10.38;;;;;;;;;;5090569;28;20043;-79
2022/06/05 03:39:33;;;;;;;12.98;9.10;;;;;;;;;;5080941;28;20062;-84
2022/06/05 03:41:59;;;;;;;17.02;10.00;;;;;;;;;;5076398;28;20035;-80
2022/06/05 03:44:26;;;;;;;14.52;9.52;;;;;;;;;;5079863;28;20024;-83
2022/06/05 03:46:53;;;;;;;14.73;9.02;;;;;;;;;;5086823;28;20055;-81
2022/06/05 03:49:19;;;;;;;10.98;8.48;;;;;;;;;;5073540;28;20744;-84
2022/06/05 03:51:46;;;;;;;10.52;9.02;;;;;;;;;;5077356;28;20024;-81
2022/06/05 03:54:12;;;;;;;17.20;10.18;;;;;;;;;;5062472;28;20049;-81
2022/06/05 03:56:38;;;;;;;10.98;8.73;;;;;;;;;;5067058;28;20020;-83
2022/06/05 03:59:05;;;;;;;12.60;9.13;;;;;;;;;;5057512;28;20017;-81
2022/06/05 04:01:31;;;;;;;12.48;9.60;;;;;;;;;;5055564;28;20017;-82
2022/06/05 04:03:58;;;;;;;12.43;9.23;;;;;;;;;;5062773;28;20016;-81
2022/06/05 04:06:29;;;;;;;12.07;9.02;;;;;;;;;;5057291;28;20029;-82
2022/06/05 04:09:00;;;;;;;10.15;9.13;;;;;;;;;;5058974;28;20017;-83
2022/06/05 04:11:28;;;;;;;9.98;7.30;;;;;;;;;;5054884;28;20010;-82
2022/06/05 04:13:54;;;;;;;8.45;6.85;;;;;;;;;;5062561;28;20016;-80
2022/06/05 04:16:22;;;;;;;8.10;7.32;;;;;;;;;;5055546;28;20032;-82
2022/06/05 04:18:49;;;;;;;9.23;8.23;;;;;;;;;;5056895;28;20033;-82
2022/06/05 04:21:19;;;;;;;12.45;8.00;;;;;;;;;;5053460;28;20075;-82
2022/06/05 04:23:46;;;;;;;10.43;8.00;;;;;;;;;;5060781;28;20108;-82
2022/06/05 04:26:13;;;;;;;10.75;8.93;;;;;;;;;;5066810;28;20021;-82
2022/06/05 04:28:40;;;;;;;11.15;9.00;;;;;;;;;;5032490;28;20452;-82
2022/06/05 04:31:15;;;;;;;17.08;8.43;;;;;;;;;;5059986;28;20100;-83
2022/06/05 04:33:42;;;;;;;18.80;8.18;;;;;;;;;;5053790;28;20025;-82
2022/06/05 04:36:08;;;;;;;9.40;8.23;;;;;;;;;;5068703;28;20032;-80
2022/06/05 04:38:34;;;;;;;11.05;8.02;;;;;;;;;;5067544;28;20020;-81
2022/06/05 04:41:01;;;;;;;13.02;8.15;;;;;;;;;;5060811;28;20764;-81
2022/06/05 04:43:27;;;;;;;10.32;7.95;;;;;;;;;;5059196;28;20420;-81
2022/06/05 04:45:53;;;;;;;15.05;8.80;;;;;;;;;;5065699;28;20074;-81
2022/06/05 04:48:19;;;;;;;12.68;9.10;;;;;;;;;;5059611;28;20036;-81
2022/06/05 04:50:46;;;;;;;15.95;8.65;;;;;;;;;;5057396;28;20025;-82
2022/06/05 04:53:12;;;;;;;8.38;7.57;;;;;;;;;;5059937;28;20032;-81
2022/06/05 04:55:38;;;;;;;11.00;8.35;;;;;;;;;;5063888;28;20033;-81
2022/06/05 04:58:05;;;;;;;10.70;7.75;;;;;;;;;;5066240;28;20023;-80
2022/06/05 05:00:31;;;;;;;10.85;8.80;;;;;;;;;;5065572;28;20129;-80
2022/06/05 05:02:57;;;;;;;11.35;8.75;;;;;;;;;;5059169;28;20021;-81
2022/06/05 05:05:23;;;;;;;13.38;8.80;;;;;;;;;;5066337;28;20519;-80
2022/06/05 05:07:50;;;;;;;11.73;8.85;;;;;;;;;;5054491;28;20035;-81
2022/06/05 05:10:16;;;;;;;12.13;7.65;;;;;;;;;;5064084;28;20017;-82
2022/06/05 05:12:53;;;;;;;;;;;;;;;;;;;;;
2022/06/05 05:15:20;;;;;;;8.52;7.60;;;;;;;;;;5056659;28;20051;-81
2022/06/05 05:17:46;;;;;;;11.02;8.38;;;;;;;;;;5060789;28;20021;-81
2022/06/05 05:20:13;;;;;;;8.77;7.85;;;;;;;;;;5059952;28;20099;-82
2022/06/05 05:22:43;;;;;;;12.23;6.85;;;;;;;;;;5058587;28;20028;-81
2022/06/05 05:25:10;;;;;;;16.13;7.10;;;;;;;;;;5059267;28;20067;-81
2022/06/05 05:27:37;;;;;;;13.75;8.13;;;;;;;;;;5058388;28;20576;-81
2022/06/05 05:30:05;;;;;;;12.40;8.48;;;;;;;;;;5058813;28;20025;-82
2022/06/05 05:32:31;;;;;;;11.18;8.93;;;;;;;;;;5057393;28;20078;-81
2022/06/05 05:34:58;;;;;;;9.27;7.43;;;;;;;;;;5060018;28;20089;-81
2022/06/05 05:37:24;;;;;;;11.38;9.15;;;;;;;;;;5043061;28;20024;-83
2022/06/05 05:42:35;;;;;;;12.30;7.85;;;;;;;;;;5064263;28;20035;-81
2022/06/05 05:45:01;;;;;;;9.57;8.05;;;;;;;;;;5066716;28;20047;-81
2022/06/05 05:47:29;;;;;;;14.77;7.78;;;;;;;;;;5062102;28;20250;-82
2022/06/05 05:49:59;;;;;;;12.70;7.68;;;;;;;;;;5063052;28;20016;-82
2022/06/05 05:52:26;;;;;;;8.98;7.97;;;;;;;;;;5059235;28;20017;-83
2022/06/05 05:54:53;;;;;;;13.70;7.85;;;;;;;;;;5067388;28;20036;-80
2022/06/05 05:57:19;;;;;;;9.18;7.78;;;;;;;;;;5066738;28;20027;-88
2022/06/05 05:59:46;;;;;;;15.18;7.95;;;;;;;;;;5050363;28;20020;-82
2022/06/05 06:02:16;;;;;;;12.52;7.68;;;;;;;;;;5060399;28;20036;-82
2022/06/05 06:04:41;;;;;;;;;;;;;;;;;;5064949;28;20024;-81
2022/06/05 06:07:08;;;;;;;10.20;6.15;;;;;;;;;;5067119;28;19954;-83
2022/06/05 06:09:34;;;;;;;10.10;7.05;;;;;;;;;;5066938;28;20505;-82
2022/06/05 06:12:01;;;;;;;10.35;6.90;;;;;;;;;;5062358;28;20054;-81
2022/06/05 06:14:27;;;;;;;10.52;7.22;;;;;;;;;;5060273;28;20542;-80
2022/06/05 06:16:53;;;;;;;8.25;6.30;;;;;;;;;;5053004;28;20477;-83
2022/06/05 06:19:20;;;;;;;8.77;6.45;;;;;;;;;;5043439;28;20456;-83
2022/06/05 06:21:46;;;;;;;7.75;6.22;;;;;;;;;;5053648;28;20029;-83
2022/06/05 06:24:13;;;;;;;8.23;6.78;;;;;;;;;;5053194;28;20436;-81
2022/06/05 06:26:40;;;;;;;8.73;7.35;;;;;;;;;;5063738;28;20021;-83
2022/06/05 06:29:07;;;;;;;7.78;7.07;;;;;;;;;;5055561;28;20021;-82
2022/06/05 06:31:34;;;;;;;7.80;6.35;;;;;;;;;;5060758;28;20058;-83
2022/06/05 06:34:01;;;;;;;11.13;7.53;;;;;;;;;;5061873;28;20013;-81
2022/06/05 06:36:28;;;;;;;8.40;7.05;;;;;;;;;;5066566;28;20044;-85
2022/06/05 06:38:54;;;;;;;8.75;6.85;;;;;;;;;;5062013;28;20039;-84
2022/06/05 06:41:21;;;;;;;8.93;6.82;;;;;;;;;;5066401;28;20020;-82
2022/06/05 06:43:48;;;;;;;7.85;7.03;;;;;;;;;;5061958;28;20016;-84
2022/06/05 06:46:15;;;;;;;8.70;7.60;;;;;;;;;;5066389;28;20047;-83
2022/06/05 06:48:41;;;;;;;7.18;6.38;;;;;;;;;;5045490;28;20031;-83
2022/06/05 06:51:08;;;;;;;10.75;7.20;;;;;;;;;;5067069;28;20012;-83
2022/06/05 06:53:35;;;;;;;10.38;7.38;;;;;;;;;;5053476;28;20045;-84
2022/06/05 06:56:09;;;;;;;9.20;6.90;;;;;;;;;;5062257;28;20032;-83
2022/06/05 06:58:35;;;;;;;9.18;7.38;;;;;;;;;;5047913;28;20028;-84
2022/06/05 07:01:01;;;;;;;7.65;6.93;;;;;;;;;;5067906;28;20029;-85
2022/06/05 07:03:28;;;;;;;15.65;8.15;;;;;;;;;;5042629;28;20031;-83
2022/06/05 07:05:54;;;;;;;7.60;6.78;;;;;;;;;;5068550;28;20043;-84
2022/06/05 07:08:20;;;;;;;9.43;7.25;;;;;;;;;;5060571;28;20473;-83
2022/06/05 07:10:46;;;;;;;8.02;7.03;;;;;;;;;;5064314;28;20021;-83
2022/06/05 07:13:12;;;;;;;7.57;6.72;;;;;;;;;;5058434;28;20016;-82
2022/06/05 07:15:39;;;;;;;10.55;8.15;;;;;;;;;;5062169;28;20393;-83
2022/06/05 07:18:07;;;;;;;7.68;6.88;;;;;;;;;;5042127;28;20028;-85
2022/06/05 07:20:34;;;;;;;9.15;6.22;;;;;;;;;;5064929;28;20452;-84
2022/06/05 07:23:01;;;;;;;9.90;6.22;;;;;;;;;;5051056;28;20024;-84
2022/06/05 07:25:28;;;;;;;6.40;5.80;;;;;;;;;;5051417;28;20393;-83
2022/06/05 07:27:54;;;;;;;6.72;6.13;;;;;;;;;;5053429;28;20013;-83
2022/06/05 07:30:20;;;;;;;6.72;5.75;;;;;;;;;;5061851;28;20021;-85
2022/06/05 07:32:47;;;;;;;7.97;6.13;;;;;;;;;;5069542;28;20020;-82
2022/06/05 07:35:13;;;;;;;7.50;5.75;;;;;;;;;;5042439;28;20044;-84
2022/06/05 07:37:40;;;;;;;7.50;6.20;;;;;;;;;;5044032;28;20016;-84
2022/06/05 07:40:07;;;;;;;6.70;5.70;;;;;;;;;;5068447;28;20487;-84
2022/06/05 07:42:35;;;;;;;7.43;5.70;;;;;;;;;;5050200;28;20023;-84
2022/06/05 07:45:01;;;;;;;8.52;6.00;;;;;;;;;;5059573;28;20013;-84
2022/06/05 07:47:27;;;;;;;6.53;5.93;;;;;;;;;;5055155;28;20024;-84
2022/06/05 07:49:54;;;;;;;9.35;6.05;;;;;;;;;;5038778;28;20082;-84
2022/06/05 07:55:04;;;;;;;6.53;5.07;;;;;;;;;;5065838;28;20047;-83
2022/06/05 07:57:30;;;;;;;5.93;5.43;;;;;;;;;;5068143;28;20029;-84
2022/06/05 07:59:57;;;;;;;6.13;5.55;;;;;;;;;;5049552;28;20015;-84
2022/06/05 08:02:24;;;;;;;5.90;5.40;;;;;;;;;;5067277;28;20024;-83
2022/06/05 08:04:51;;;;;;;6.28;5.68;;;;;;;;;;5053241;28;20059;-84
2022/06/05 08:07:22;;;;;;;5.50;4.78;;;;;;;;;;5072773;28;20016;-84
2022/06/05 08:09:49;;;;;;;5.72;4.88;;;;;;;;;;5055212;28;20105;-84
2022/06/05 08:12:18;;;;;;;5.75;4.47;;;;;;;;;;5073092;28;20015;-84
2022/06/05 08:14:45;;;;;;;6.68;5.28;;;;;;;;;;5073239;28;20574;-83
2022/06/05 08:17:14;;;;;;;5.25;4.75;;;;;;;;;;5053038;28;20056;-84
2022/06/05 08:19:41;;;;;;;5.72;4.20;;;;;;;;;;5054787;28;20032;-83
2022/06/05 08:22:11;;;;;;;6.88;5.20;;;;;;;;;;5074096;28;20099;-84
2022/06/05 08:24:39;;;;;;;11.75;5.43;;;;;;;;;;5054144;28;20120;-84
2022/06/05 08:27:07;;;;;;;6.93;4.63;;;;;;;;;;5072634;28;20021;-84
2022/06/05 08:29:33;;;;;;;4.72;4.32;;;;;;;;;;5072452;28;20020;-85
2022/06/05 08:31:59;;;;;;;4.75;4.18;;;;;;;;;;5052983;28;20388;-83
2022/06/05 08:34:25;;;;;;;6.13;4.57;;;;;;;;;;5064148;28;20025;-85
2022/06/05 08:41:26;;;;;;;4.25;3.92;;;;;;;;;;5054172;28;20028;-84
2022/06/05 08:42:31;;;;;;;5.00;4.50;;;;;;;;;;5072663;28;20066;-84
2022/06/05 08:45:00;;;;;;;6.32;5.35;;;;;;;;;;5072931;28;20112;-83
2022/06/05 08:47:30;;;;;;;7.38;5.07;;;;;;;;;;5054620;28;20013;-83
2022/06/05 08:49:59;;;;;;;7.82;5.07;;;;;;;;;;5073006;28;20055;-85
2022/06/05 08:52:36;;;;;;;5.28;4.35;;;;;;;;;;5055229;28;20016;-85
2022/06/05 08:55:14;;;;;;;7.03;6.38;;;;;;;;;;5071245;28;20067;-84
2022/06/05 08:57:46;;;;;;;6.25;4.63;;;;;;;;;;5053783;28;20477;-85
2022/06/05 09:00:16;;;;;;;6.53;5.80;;;;;;;;;;5053881;28;20063;-85
2022/06/05 09:03:23;;;;;;;6.72;4.72;;;;;;;;;;5053805;28;20108;-84
2022/06/05 09:06:01;;;;;;;6.18;5.55;;;;;;;;;;4989140;28;20133;-84
2022/06/05 09:08:30;;;;;;;6.65;5.35;;;;;;;;;;4990408;28;20013;-87
2022/06/05 09:10:58;;;;;;;5.30;4.47;;;;;;;;;;5038182;28;20090;-86
2022/06/05 09:13:31;;;;;;;6.72;5.28;;;;;;;;;;5054474;28;20104;-85
2022/06/05 09:16:01;;;;;;;5.45;4.10;;;;;;;;;;5071949;28;20035;-86
2022/06/05 09:18:39;;;;;;;5.82;4.55;;;;;;;;;;5056173;28;20081;-81
2022/06/05 09:21:12;;;;;;;7.68;4.10;;;;;;;;;;5054121;28;20060;-82
2022/06/05 09:23:41;;;;;;;4.68;4.22;;;;;;;;;;5073372;28;20121;-86
2022/06/05 09:26:16;;;;;;;5.45;4.95;;;;;;;;;;5057655;28;20028;-85
2022/06/05 09:28:42;;;;;;;6.80;5.20;;;;;;;;;;5074650;28;20025;-83
2022/06/05 09:31:08;;;;;;;7.55;4.90;;;;;;;;;;5071731;28;20096;-83
2022/06/05 09:33:36;;;;;;;5.15;4.65;;;;;;;;;;5071387;28;20473;-83
2022/06/05 09:36:05;;;;;;;4.50;4.10;;;;;;;;;;5051642;28;20105;-82
2022/06/05 09:38:37;;;;;;;6.50;4.70;;;;;;;;;;5071330;28;20074;-80
2022/06/05 09:41:12;;;;;;;6.10;4.65;;;;;;;;;;5059063;28;20032;-83
2022/06/05 09:43:44;;;;;;;5.47;4.78;;;;;;;;;;5071195;28;20021;-81
2022/06/05 09:46:10;;;;;;;5.10;4.60;;;;;;;;;;5071640;28;20028;-79
2022/06/05 09:48:41;;;;;;;6.63;5.43;;;;;;;;;;5090733;28;20012;-84
2022/06/05 09:51:09;;;;;;;7.30;4.63;;;;;;;;;;5077810;28;20107;-82
2022/06/05 09:53:54;;;;;;;8.25;4.75;;;;;;;;;;5051085;28;20555;-83
2022/06/05 09:56:24;;;;;;;5.68;4.22;;;;;;;;;;5050877;28;20033;-80
2022/06/05 09:58:51;;;;;;;;;;;;;;;;;;5047905;28;20041;-81
2022/06/05 10:01:20;;;;;;;5.75;5.07;;;;;;;;;;5070821;28;20361;-81
2022/06/05 10:03:47;;;;;;;4.97;4.57;;;;;;;;;;5070887;28;20012;-82
2022/06/05 10:06:19;;;;;;;6.57;4.75;;;;;;;;;;5067766;28;20040;-81
2022/06/05 10:08:48;;;;;;;4.85;4.35;;;;;;;;;;5067694;28;20472;-81
2022/06/05 10:11:32;;;;;;;6.00;4.72;;;;;;;;;;5070715;28;20012;-81
2022/06/05 10:14:03;;;;;;;5.60;4.65;;;;;;;;;;5070890;28;20384;-81
2022/06/05 10:16:45;;;;;;;6.80;5.55;;;;;;;;;;5067016;28;20025;-82
2022/06/05 10:19:12;;;;;;;4.95;4.55;;;;;;;;;;5056983;28;20017;-84
2022/06/05 10:21:44;;;;;;;5.47;4.25;;;;;;;;;;5050632;28;20505;-81
2022/06/05 10:24:28;;;;;;;7.45;5.20;;;;;;;;;;5049343;28;20383;-82
2022/06/05 10:26:57;;;;;;;5.32;4.15;;;;;;;;;;5068418;28;20028;-82
2022/06/05 10:29:43;;;;;;;5.03;4.57;;;;;;;;;;5050708;28;20078;-81
2022/06/05 10:32:28;;;;;;;4.82;4.43;;;;;;;;;;5049780;28;20032;-81
2022/06/05 10:35:14;;;;;;;5.80;4.65;;;;;;;;;;5050545;28;20033;-81
2022/06/05 10:37:44;;;;;;;7.03;4.78;;;;;;;;;;5032508;28;20077;-81
2022/06/05 10:40:17;;;;;;;10.20;5.20;;;;;;;;;;5050238;28;20047;-81
2022/06/05 10:43:13;;;;;;;4.18;3.78;;;;;;;;;;5049950;28;20024;-83
2022/06/05 10:45:55;;;;;;;4.88;4.45;;;;;;;;;;5033850;28;20029;-79
2022/06/05 10:48:41;;;;;;;5.03;4.10;;;;;;;;;;5050245;28;20477;-83
2022/06/05 10:51:19;;;;;;;6.78;4.82;;;;;;;;;;5069316;28;20059;-85
2022/06/05 10:53:58;;;;;;;4.63;4.07;;;;;;;;;;5067185;28;20076;-83
2022/06/05 10:56:34;;;;;;;4.13;3.72;;;;;;;;;;5069490;28;20410;-82
2022/06/05 10:59:18;;;;;;;4.90;3.55;;;;;;;;;;5070183;28;20469;-82
2022/06/05 11:02:05;;;;;;;4.57;4.18;;;;;;;;;;5070360;28;20025;-83
2022/06/05 11:04:34;;;;;;;7.70;4.70;;;;;;;;;;5070682;28;20027;-80
2022/06/05 11:07:18;;;;;;;4.47;4.03;;;;;;;;;;5068557;28;20588;-79
2022/06/05 11:09:51;;;;;;;6.18;5.07;;;;;;;;;;5051664;28;20064;-83
2022/06/05 11:15:10;;;;;;;5.20;4.70;;;;;;;;;;5063904;28;20047;-82
2022/06/05 11:17:45;;;;;;;5.95;4.90;;;;;;;;;;5059881;28;20104;-83
2022/06/05 11:20:12;;;;;;;7.22;4.68;;;;;;;;;;5063752;28;20041;-80
2022/06/05 11:22:44;;;;;;;5.70;4.68;;;;;;;;;;5068408;28;20393;-79
2022/06/05 11:25:13;;;;;;;5.93;4.75;;;;;;;;;;5068161;28;20027;-77
2022/06/05 11:27:53;;;;;;;5.07;4.45;;;;;;;;;;5062417;28;20017;-77
2022/06/05 11:30:37;;;;;;;6.25;3.92;;;;;;;;;;5069028;28;20052;-78
2022/06/05 11:33:13;;;;;;;5.63;5.03;;;;;;;;;;5064223;28;20020;-79
2022/06/05 11:35:57;;;;;;;5.13;4.63;;;;;;;;;;5052706;28;20404;-77
2022/06/05 11:38:37;;;;;;;5.72;4.90;;;;;;;;;;5033491;28;20114;-80
2022/06/05 11:41:18;;;;;;;6.68;5.13;;;;;;;;;;5073279;28;20021;-79
2022/06/05 11:43:45;;;;;;;7.18;6.22;;;;;;;;;;5072558;28;20077;-84
2022/06/05 11:46:35;;;;;;;8.73;7.10;;;;;;;;;;5069869;28;20392;-79
2022/06/05 11:49:10;;;;;;;6.20;5.60;;;;;;;;;;5043781;28;20394;-80
2022/06/05 11:51:46;;;;;;;7.18;6.45;;;;;;;;;;5069778;28;20028;-77
2022/06/05 11:54:24;;;;;;;6.70;5.72;;;;;;;;;;5063344;28;20032;-77
2022/06/05 11:57:00;;;;;;;7.93;6.18;;;;;;;;;;5065007;28;20124;-78
2022/06/05 11:59:26;;;;;;;8.27;5.53;;;;;;;;;;5056837;28;20043;-78
2022/06/05 12:02:09;;;;;;;6.55;4.97;;;;;;;;;;5070470;28;20023;-78
2022/06/05 12:04:36;;;;;;;7.07;6.38;;;;;;;;;;5065973;28;20025;-75
2022/06/05 12:07:06;;;;;;;6.82;5.82;;;;;;;;;;5067638;28;20047;-78
2022/06/05 12:09:35;;;;;;;7.50;5.45;;;;;;;;;;5063759;28;20111;-77
2022/06/05 12:12:01;;;;;;;6.40;5.22;;;;;;;;;;5060972;28;20043;-78
2022/06/05 12:14:36;;;;;;;6.70;6.07;;;;;;;;;;5064961;28;20036;-77
2022/06/05 12:17:24;;;;;;;7.43;6.20;;;;;;;;;;5064356;28;20070;-78
2022/06/05 12:19:59;;;;;;;7.60;6.07;;;;;;;;;;5063327;28;20083;-78
2022/06/05 12:22:30;;;;;;;8.60;5.57;;;;;;;;;;5054683;28;20032;-79
2022/06/05 12:24:56;;;;;;;7.18;6.47;;;;;;;;;;5052814;28;20017;-78
2022/06/05 12:27:22;;;;;;;5.53;4.97;;;;;;;;;;5057478;28;20090;-78
2022/06/05 12:30:14;;;;;;;9.57;6.07;;;;;;;;;;5070132;28;20481;-78
2022/06/05 12:32:59;;;;;;;9.45;5.72;;;;;;;;;;5066318;28;20025;-79
2022/06/05 12:35:30;;;;;;;7.10;6.30;;;;;;;;;;5052931;28;20040;-78
2022/06/05 12:38:04;;;;;;;8.82;5.78;;;;;;;;;;5054370;28;20154;-79
2022/06/05 12:40:32;;;;;;;8.32;5.97;;;;;;;;;;5065943;28;20120;-78
2022/06/05 12:43:13;;;;;;;6.35;4.55;;;;;;;;;;5057770;28;20030;-76
2022/06/05 12:45:41;;;;;;;6.03;5.35;;;;;;;;;;5062129;28;20021;-77
2022/06/05 12:48:24;;;;;;;6.63;5.68;;;;;;;;;;5071172;28;20036;-77
2022/06/05 12:51:02;;;;;;;7.35;5.43;;;;;;;;;;5059256;28;20493;-77
2022/06/05 12:53:40;;;;;;;6.53;5.50;;;;;;;;;;5059010;28;20052;-76
2022/06/05 12:56:25;;;;;;;6.25;5.20;;;;;;;;;;5052071;28;20055;-77
2022/06/05 12:58:58;;;;;;;6.13;5.47;;;;;;;;;;5058626;28;20499;-79
2022/06/05 13:01:29;;;;;;;6.03;5.13;;;;;;;;;;5072023;28;20051;-78
2022/06/05 13:04:06;;;;;;;6.40;4.80;;;;;;;;;;5054795;28;20057;-78
2022/06/05 13:06:44;;;;;;;12.65;5.80;;;;;;;;;;5052019;28;20409;-77
2022/06/05 13:09:14;;;;;;;7.25;5.97;;;;;;;;;;5051979;28;20017;-76
2022/06/05 13:11:43;;;;;;;6.97;6.28;;;;;;;;;;5051820;28;20059;-78
2022/06/05 13:14:28;;;;;;;9.48;6.85;;;;;;;;;;5050083;28;20010;-77
2022/06/05 13:16:57;;;;;;;5.75;5.25;;;;;;;;;;5055101;28;20037;-77
2022/06/05 13:19:23;;;;;;;6.68;5.85;;;;;;;;;;5071353;28;20107;-80
2022/06/05 13:22:09;;;;;;;6.78;5.22;;;;;;;;;;5058777;28;20071;-77
2022/06/05 13:24:41;;;;;;;5.82;5.30;;;;;;;;;;5067189;28;20107;-77
2022/06/05 13:27:27;;;;;;;5.32;4.82;;;;;;;;;;5054758;28;20606;-78
2022/06/05 13:29:59;;;;;;;5.47;4.90;;;;;;;;;;5050753;28;20054;-78
2022/06/05 13:32:44;;;;;;;6.70;5.55;;;;;;;;;;5060634;28;20029;-78
2022/06/05 13:35:31;;;;;;;5.95;5.38;;;;;;;;;;5057766;28;20116;-78
2022/06/05 13:38:20;;;;;;;5.43;4.97;;;;;;;;;;5062702;28;20052;-77
2022/06/05 13:41:01;;;;;;;8.48;5.03;;;;;;;;;;5040293;28;20052;-76
2022/06/05 13:43:30;;;;;;;9.75;5.88;;;;;;;;;;5062427;28;20020;-76
2022/06/05 13:45:56;;;;;;;8.02;5.85;;;;;;;;;;5063290;28;20021;-76
2022/06/05 13:48:26;;;;;;;8.35;6.55;;;;;;;;;;5070794;28;20464;-77
2022/06/05 13:50:55;;;;;;;6.70;5.93;;;;;;;;;;5060917;28;20555;-77
2022/06/05 13:53:25;;;;;;;6.87;5.77;;;;;;;;;;5050681;28;20083;-75
2022/06/05 13:56:06;;;;;;;7.60;6.57;;;;;;;;;;5060663;28;20032;-78
2022/06/05 13:58:33;;;;;;;7.43;6.03;;;;;;;;;;5069720;28;20066;-77
2022/06/05 14:01:08;;;;;;;6.10;5.50;;;;;;;;;;5070406;28;20104;-77
2022/06/05 14:03:37;;;;;;;6.82;5.88;;;;;;;;;;5063706;28;20032;-75
2022/06/05 14:06:26;;;;;;;10.38;6.72;;;;;;;;;;5067130;28;20142;-76
2022/06/05 14:08:53;;;;;;;7.75;5.72;;;;;;;;;;5040210;28;20045;-77
2022/06/05 14:11:42;;;;;;;6.68;5.97;;;;;;;;;;5066042;28;20452;-77
2022/06/05 14:14:08;;;;;;;11.05;7.45;;;;;;;;;;5050307;28;20939;-77
2022/06/05 14:16:45;;;;;;;6.88;6.28;;;;;;;;;;5059565;28;20078;-77
2022/06/05 14:19:21;;;;;;;7.25;6.65;;;;;;;;;;5049862;28;20386;-77
2022/06/05 14:21:53;;;;;;;11.25;6.68;;;;;;;;;;5052658;28;20021;-77
2022/06/05 14:24:24;;;;;;;8.43;6.75;;;;;;;;;;5062949;28;20090;-76
2022/06/05 14:26:55;;;;;;;10.93;7.75;;;;;;;;;;5056163;28;20017;-76
2022/06/05 14:29:24;;;;;;;8.93;7.30;;;;;;;;;;5069936;28;20012;-77
2022/06/05 14:32:16;;;;;;;7.45;6.60;;;;;;;;;;5069779;28;20025;-77
2022/06/05 14:34:45;;;;;;;7.65;6.93;;;;;;;;;;5039742;28;20528;-76
2022/06/05 14:37:32;;;;;;;7.72;6.93;;;;;;;;;;5049147;28;20024;-77
2022/06/05 14:40:03;;;;;;;7.95;7.15;;;;;;;;;;5058907;28;20070;-76
2022/06/05 14:42:45;;;;;;;10.55;7.75;;;;;;;;;;5068717;28;20023;-76
2022/06/05 14:45:14;;;;;;;7.60;6.78;;;;;;;;;;5056945;28;20496;-76
2022/06/05 14:47:41;;;;;;;8.02;7.22;;;;;;;;;;5054815;28;20035;-76
2022/06/05 14:50:11;;;;;;;13.15;7.38;;;;;;;;;;5049389;28;20123;-76
2022/06/05 14:52:43;;;;;;;10.18;8.60;;;;;;;;;;5049623;28;20028;-78
2022/06/05 14:58:16;;;;;;;12.23;8.27;;;;;;;;;;5053739;28;20167;-77
2022/06/05 15:00:43;;;;;;;9.30;8.35;;;;;;;;;;5066916;28;20065;-76
2022/06/05 15:03:21;;;;;;;9.93;8.30;;;;;;;;;;5067992;28;20077;-76
2022/06/05 15:05:56;;;;;;;11.45;9.13;;;;;;;;;;5069464;28;20028;-77
2022/06/05 15:08:25;;;;;;;13.43;9.63;;;;;;;;;;5069470;28;20465;-75
2022/06/05 15:10:56;;;;;;;9.60;8.55;;;;;;;;;;5069041;28;20069;-77
2022/06/05 15:13:29;;;;;;;14.70;9.75;;;;;;;;;;5068756;28;20069;-77
2022/06/05 15:16:02;;;;;;;13.07;8.02;;;;;;;;;;5066835;28;20629;-77
2022/06/05 15:18:29;;;;;;;11.77;9.32;;;;;;;;;;5068043;28;20028;-77